createdAt,value
2022-08-30T00:00:16.104Z,1.02
2022-08-30T00:02:44.577Z,1.20
2022-08-30T00:05:16.919Z,1.20
2022-08-30T00:07:45.897Z,1.10
2022-08-30T00:10:13.794Z,1.00
2022-08-30T00:12:43.867Z,1.13
2022-08-30T00:15:14.121Z,1.08
2022-08-30T00:17:43.683Z,0.70
2022-08-30T00:20:14.359Z,0.95
2022-08-30T00:22:42.617Z,1.02
2022-08-30T00:25:10.630Z,1.10
2022-08-30T00:27:38.997Z,1.00
2022-08-30T00:30:10.520Z,0.98
2022-08-30T00:32:38.184Z,1.00
2022-08-30T00:35:07.587Z,1.10
2022-08-30T00:37:35.687Z,0.93
2022-08-30T00:40:05.829Z,0.93
2022-08-30T00:42:33.722Z,1.00
2022-08-30T00:45:10.106Z,1.15
2022-08-30T00:50:08.665Z,1.00
2022-08-30T00:52:41.349Z,1.10
2022-08-30T00:55:09.857Z,0.90
2022-08-30T00:57:37.621Z,0.95
2022-08-30T01:00:07.187Z,1.00
2022-08-30T01:02:35.306Z,1.10
2022-08-30T01:05:05.659Z,1.20
2022-08-30T01:07:35.320Z,1.08
2022-08-30T01:10:05.384Z,1.20
2022-08-30T01:12:34.457Z,1.40
2022-08-30T01:15:02.740Z,1.20
2022-08-30T01:17:30.806Z,1.08
2022-08-30T01:20:07.242Z,1.10
2022-08-30T01:22:43.992Z,1.10
2022-08-30T01:25:22.231Z,1.20
2022-08-30T01:27:54.237Z,0.95
2022-08-30T01:30:24.574Z,1.40
2022-08-30T01:33:01.389Z,1.30
2022-08-30T01:35:35.897Z,1.48
2022-08-30T01:38:03.775Z,1.00
2022-08-30T01:40:31.421Z,1.08
2022-08-30T01:43:00.599Z,1.83
2022-08-30T01:45:28.247Z,1.00
2022-08-30T01:47:56.193Z,0.90
2022-08-30T01:50:27.656Z,1.00
2022-08-30T01:52:56.719Z,1.00
2022-08-30T01:55:25.031Z,1.23
2022-08-30T01:57:52.767Z,0.90
2022-08-30T02:00:21.956Z,0.95
2022-08-30T02:02:49.709Z,0.90
2022-08-30T02:05:17.651Z,1.02
2022-08-30T02:07:45.406Z,1.00
2022-08-30T02:10:15.074Z,1.00
2022-08-30T02:12:43.169Z,0.98
2022-08-30T02:15:11.178Z,1.00
2022-08-30T02:17:39.679Z,1.00
2022-08-30T02:20:08.221Z,1.00
2022-08-30T02:22:35.871Z,0.90
2022-08-30T02:25:06.578Z,1.00
2022-08-30T02:27:39.476Z,0.80
2022-08-30T02:30:11.123Z,1.10
2022-08-30T02:32:38.929Z,0.85
2022-08-30T02:35:06.847Z,1.08
2022-08-30T02:37:34.672Z,1.23
2022-08-30T02:40:02.563Z,1.20
2022-08-30T02:42:30.366Z,1.10
2022-08-30T02:44:58.224Z,1.33
2022-08-30T02:47:26.861Z,1.02
2022-08-30T02:49:54.696Z,1.23
2022-08-30T02:52:27.648Z,1.40
2022-08-30T02:54:57.835Z,1.50
2022-08-30T02:57:26.012Z,1.20
2022-08-30T02:59:53.748Z,1.58
2022-08-30T03:02:22.633Z,1.10
2022-08-30T03:04:50.598Z,1.60
2022-08-30T03:07:19.966Z,1.30
2022-08-30T03:09:47.840Z,1.20
2022-08-30T03:12:16.838Z,1.15
2022-08-30T03:14:44.738Z,1.30
2022-08-30T03:17:13.804Z,1.00
2022-08-30T03:19:47.583Z,1.20
2022-08-30T03:22:15.871Z,1.10
2022-08-30T03:24:45.425Z,1.35
2022-08-30T03:27:14.939Z,1.33
2022-08-30T03:29:42.955Z,1.27
2022-08-30T03:32:15.710Z,1.00
2022-08-30T03:34:44.619Z,1.13
2022-08-30T03:37:12.286Z,1.15
2022-08-30T03:39:40.624Z,1.15
2022-08-30T03:42:08.747Z,1.15
2022-08-30T03:44:36.814Z,7.20
2022-08-30T03:47:07.461Z,5.60
2022-08-30T03:49:35.534Z,3.58
2022-08-30T03:52:04.501Z,2.50
2022-08-30T03:54:32.345Z,1.58
2022-08-30T03:57:01.066Z,1.35
2022-08-30T03:59:28.780Z,1.02
2022-08-30T04:01:56.585Z,1.10
2022-08-30T04:04:24.501Z,1.13
2022-08-30T04:06:52.228Z,1.02
2022-08-30T04:09:20.217Z,1.05
2022-08-30T04:11:48.051Z,0.90
2022-08-30T04:14:15.791Z,1.23
2022-08-30T04:16:43.759Z,1.30
2022-08-30T04:19:11.930Z,0.95
2022-08-30T04:21:43.127Z,1.55
2022-08-30T04:24:12.461Z,1.17
2022-08-30T04:26:40.100Z,1.35
2022-08-30T04:29:08.188Z,1.50
2022-08-30T04:31:35.900Z,1.33
2022-08-30T04:34:03.856Z,1.08
2022-08-30T04:36:31.573Z,1.20
2022-08-30T04:38:59.384Z,1.13
2022-08-30T04:41:27.231Z,1.20
2022-08-30T04:43:54.932Z,1.42
2022-08-30T04:46:22.777Z,1.95
2022-08-30T04:48:50.453Z,1.75
2022-08-30T04:51:18.541Z,1.60
2022-08-30T04:53:46.699Z,1.50
2022-08-30T04:56:17.410Z,1.20
2022-08-30T04:58:46.551Z,1.30
2022-08-30T05:01:20.604Z,1.40
2022-08-30T05:03:52.979Z,0.95
2022-08-30T05:06:21.363Z,1.38
2022-08-30T05:08:51.738Z,1.48
2022-08-30T05:11:20.275Z,1.17
2022-08-30T05:13:49.841Z,1.20
2022-08-30T05:16:19.539Z,1.15
2022-08-30T05:18:49.139Z,1.30
2022-08-30T05:21:28.259Z,1.70
2022-08-30T05:23:58.440Z,1.73
2022-08-30T05:26:29.658Z,1.70
2022-08-30T05:28:57.858Z,1.42
2022-08-30T05:31:32.415Z,1.40
2022-08-30T05:34:01.506Z,1.27
2022-08-30T05:36:31.856Z,1.02
2022-08-30T05:39:00.668Z,1.17
2022-08-30T05:41:29.132Z,1.65
2022-08-30T05:43:59.036Z,1.80
2022-08-30T05:49:07.539Z,1.90
2022-08-30T05:51:43.132Z,1.75
2022-08-30T05:54:13.170Z,1.30
2022-08-30T05:56:42.741Z,1.50
2022-08-30T05:59:10.408Z,1.73
2022-08-30T06:01:44.504Z,1.70
2022-08-30T06:04:13.605Z,1.90
2022-08-30T06:06:43.213Z,1.75
2022-08-30T06:09:13.133Z,1.70
2022-08-30T06:11:40.957Z,1.50
2022-08-30T06:14:09.059Z,1.73
2022-08-30T06:16:39.141Z,1.63
2022-08-30T06:19:09.685Z,1.60
2022-08-30T06:21:39.498Z,1.80
2022-08-30T06:24:09.120Z,1.65
2022-08-30T06:26:47.424Z,1.33
2022-08-30T06:29:19.060Z,1.60
2022-08-30T06:31:47.634Z,1.75
2022-08-30T06:34:16.615Z,1.80
2022-08-30T06:36:44.647Z,1.60
2022-08-30T06:39:12.316Z,1.60
2022-08-30T06:41:41.479Z,1.65
2022-08-30T06:44:28.225Z,1.65
2022-08-30T06:46:58.461Z,1.98
2022-08-30T06:49:26.330Z,1.40
2022-08-30T06:51:54.217Z,1.95
2022-08-30T06:54:21.920Z,1.67
2022-08-30T06:56:58.035Z,1.63
2022-08-30T06:59:27.392Z,1.95
2022-08-30T07:01:56.061Z,1.70
2022-08-30T07:04:24.618Z,1.90
2022-08-30T07:06:53.609Z,1.70
2022-08-30T07:09:23.135Z,1.30
2022-08-30T07:11:51.874Z,1.60
2022-08-30T07:14:20.623Z,2.05
2022-08-30T07:16:51.257Z,2.00
2022-08-30T07:19:21.438Z,1.65
2022-08-30T07:21:50.441Z,2.10
2022-08-30T07:24:18.430Z,2.45
2022-08-30T07:26:51.979Z,2.13
2022-08-30T07:29:21.400Z,2.28
2022-08-30T07:31:49.506Z,2.00
2022-08-30T07:34:19.816Z,2.00
2022-08-30T07:36:49.382Z,1.95
2022-08-30T07:39:17.206Z,1.95
2022-08-30T07:41:44.952Z,2.03
2022-08-30T07:44:12.722Z,2.42
2022-08-30T07:46:41.984Z,2.42
2022-08-30T07:49:11.586Z,2.35
2022-08-30T07:51:40.634Z,1.90
2022-08-30T07:54:08.826Z,2.03
2022-08-30T07:56:36.518Z,2.10
2022-08-30T07:59:04.619Z,2.75
2022-08-30T08:01:32.490Z,2.53
2022-08-30T08:04:00.491Z,2.38
2022-08-30T08:06:34.687Z,3.30
2022-08-30T08:09:03.022Z,2.97
2022-08-30T08:11:33.838Z,2.08
2022-08-30T08:14:03.680Z,1.88
2022-08-30T08:16:34.427Z,2.22
2022-08-30T08:19:02.244Z,2.33
2022-08-30T08:21:29.945Z,2.00
2022-08-30T08:23:57.771Z,2.10
2022-08-30T08:26:25.440Z,2.38
2022-08-30T08:28:53.277Z,2.70
2022-08-30T08:31:31.445Z,2.00
2022-08-30T08:34:05.865Z,2.70
2022-08-30T08:36:36.021Z,2.95
2022-08-30T08:39:06.017Z,4.40
2022-08-30T08:42:11.251Z,22.73
2022-08-30T08:44:39.718Z,7.07
2022-08-30T08:47:14.373Z,3.40
2022-08-30T08:49:46.600Z,6.35
2022-08-30T08:52:40.989Z,7.15
2022-08-30T08:55:16.393Z,3.63
2022-08-30T08:57:44.367Z,3.58
2022-08-30T09:00:13.696Z,2.28
2022-08-30T09:02:59.644Z,2.75
2022-08-30T09:05:36.765Z,2.88
2022-08-30T09:08:15.006Z,3.35
2022-08-30T09:10:55.489Z,2.22
2022-08-30T09:13:24.925Z,2.05
2022-08-30T09:15:56.253Z,2.60
2022-08-30T09:18:51.243Z,6.05
2022-08-30T09:21:27.446Z,3.97
2022-08-30T09:24:01.186Z,3.50
2022-08-30T09:26:32.640Z,2.90
2022-08-30T09:29:01.159Z,2.45
2022-08-30T09:31:45.302Z,2.90
2022-08-30T09:34:18.541Z,2.67
2022-08-30T09:36:52.113Z,2.30
2022-08-30T09:39:41.566Z,2.20
2022-08-30T09:42:23.924Z,15.50
2022-08-30T09:44:53.028Z,7.55
2022-08-30T09:47:27.758Z,4.18
2022-08-30T09:50:10.153Z,3.00
2022-08-30T09:53:10.719Z,3.05
2022-08-30T09:56:02.066Z,2.97
2022-08-30T09:58:54.839Z,2.70
2022-08-30T10:01:30.067Z,2.60
2022-08-30T10:04:01.154Z,3.25
2022-08-30T10:06:37.071Z,4.63
2022-08-30T10:09:14.050Z,4.28
2022-08-30T10:11:49.405Z,3.50
2022-08-30T10:14:20.158Z,4.18
2022-08-30T10:17:20.639Z,5.22
2022-08-30T10:20:10.758Z,3.80
2022-08-30T10:22:44.123Z,6.03
2022-08-30T10:25:21.883Z,7.10
2022-08-30T10:27:56.432Z,4.43
2022-08-30T10:30:29.064Z,4.30
2022-08-30T10:33:12.553Z,4.20
2022-08-30T10:35:47.181Z,6.90
2022-08-30T10:38:32.925Z,5.63
2022-08-30T10:41:24.867Z,4.68
2022-08-30T10:44:07.765Z,3.88
2022-08-30T10:47:01.579Z,4.28
2022-08-30T10:49:35.360Z,4.30
2022-08-30T10:52:19.847Z,3.83
2022-08-30T10:54:59.695Z,3.35
2022-08-30T10:57:28.543Z,3.33
2022-08-30T11:00:11.251Z,3.70
2022-08-30T11:02:58.223Z,3.50
2022-08-30T11:05:32.458Z,4.28
2022-08-30T11:08:22.051Z,4.20
2022-08-30T11:11:26.183Z,4.10
2022-08-30T11:13:57.265Z,3.90
2022-08-30T11:16:40.004Z,2.97
2022-08-30T11:19:26.528Z,3.13
2022-08-30T11:22:25.067Z,2.70
2022-08-30T11:25:14.854Z,3.90
2022-08-30T11:27:53.149Z,4.47
2022-08-30T11:30:30.798Z,2.90
2022-08-30T11:33:10.155Z,2.58
2022-08-30T11:35:50.751Z,1.88
2022-08-30T11:38:27.742Z,1.85
2022-08-30T11:40:55.405Z,2.13
2022-08-30T11:43:40.253Z,2.22
2022-08-30T11:46:27.870Z,2.10
2022-08-30T11:48:58.620Z,2.45
2022-08-30T11:51:29.307Z,2.25
2022-08-30T11:54:26.939Z,2.30
2022-08-30T11:57:40.999Z,2.10
2022-08-30T12:00:25.226Z,3.08
2022-08-30T12:03:28.876Z,2.83
2022-08-30T12:06:00.681Z,2.25
2022-08-30T12:08:28.494Z,2.10
2022-08-30T12:11:01.181Z,2.80
2022-08-30T12:13:39.372Z,2.85
2022-08-30T12:16:20.235Z,3.40
2022-08-30T12:19:10.227Z,2.97
2022-08-30T12:21:44.964Z,2.30
2022-08-30T12:24:17.047Z,2.72
2022-08-30T12:26:47.703Z,2.33
2022-08-30T12:29:24.463Z,2.78
2022-08-30T12:31:58.590Z,2.80
2022-08-30T12:34:29.056Z,3.15
2022-08-30T12:37:15.620Z,3.00
2022-08-30T12:39:53.698Z,2.45
2022-08-30T12:42:31.266Z,2.67
2022-08-30T12:45:05.700Z,2.40
2022-08-30T12:47:48.747Z,2.65
2022-08-30T12:50:22.094Z,3.33
2022-08-30T12:53:13.940Z,22.25
2022-08-30T12:56:02.093Z,25.25
2022-08-30T12:58:43.629Z,12.35
2022-08-30T13:01:33.826Z,6.32
2022-08-30T13:04:22.968Z,3.92
2022-08-30T13:07:00.383Z,4.75
2022-08-30T13:09:32.509Z,3.42
2022-08-30T13:12:08.299Z,3.22
2022-08-30T13:14:43.790Z,2.70
2022-08-30T13:17:22.397Z,3.30
2022-08-30T13:20:26.233Z,2.90
2022-08-30T13:23:08.919Z,3.17
2022-08-30T13:25:39.177Z,2.83
2022-08-30T13:28:09.470Z,2.17
2022-08-30T13:30:39.071Z,2.78
2022-08-30T13:33:06.872Z,3.90
2022-08-30T13:35:34.787Z,3.67
2022-08-30T13:38:02.767Z,3.05
2022-08-30T13:40:32.909Z,3.60
2022-08-30T13:43:02.039Z,4.32
2022-08-30T13:45:44.942Z,3.58
2022-08-30T13:48:15.456Z,2.50
2022-08-30T13:50:46.584Z,2.55
2022-08-30T13:53:51.570Z,2.53
2022-08-30T13:56:06.154Z,2.20
2022-08-30T13:58:36.284Z,2.25
2022-08-30T14:01:04.023Z,2.80
2022-08-30T14:03:33.850Z,2.50
2022-08-30T14:06:29.538Z,2.17
2022-08-30T14:08:53.486Z,2.10
2022-08-30T14:11:23.756Z,2.08
2022-08-30T14:16:44.157Z,2.15
2022-08-30T14:19:14.187Z,2.40
2022-08-30T14:21:43.143Z,2.40
2022-08-30T14:24:14.381Z,2.78
2022-08-30T14:26:51.568Z,2.63
2022-08-30T14:29:22.838Z,2.03
2022-08-30T14:31:52.686Z,2.25
2022-08-30T14:34:21.703Z,2.28
2022-08-30T14:36:49.681Z,1.90
2022-08-30T14:39:20.064Z,2.33
2022-08-30T14:41:50.777Z,2.70
2022-08-30T14:44:20.207Z,2.70
2022-08-30T14:46:49.197Z,2.28
2022-08-30T14:49:20.116Z,2.03
2022-08-30T14:51:48.661Z,1.65
2022-08-30T14:54:23.466Z,2.25
2022-08-30T14:56:54.325Z,2.03
2022-08-30T14:59:24.132Z,2.20
2022-08-30T15:01:51.935Z,1.83
2022-08-30T15:04:21.668Z,1.92
2022-08-30T15:06:51.209Z,1.73
2022-08-30T15:09:23.768Z,2.28
2022-08-30T15:11:55.140Z,2.03
2022-08-30T15:14:26.376Z,2.15
2022-08-30T15:16:58.277Z,2.42
2022-08-30T15:19:26.846Z,1.70
2022-08-30T15:21:55.236Z,1.83
2022-08-30T15:24:29.379Z,1.50
2022-08-30T15:26:59.948Z,1.50
2022-08-30T15:29:31.482Z,2.17
2022-08-30T15:32:01.962Z,1.83
2022-08-30T15:34:31.008Z,1.73
2022-08-30T15:36:59.500Z,1.73
2022-08-30T15:39:27.479Z,2.50
2022-08-30T15:42:01.105Z,2.22
2022-08-30T15:44:34.400Z,1.70
2022-08-30T15:47:03.026Z,1.40
2022-08-30T15:49:30.826Z,1.95
2022-08-30T15:52:03.913Z,1.85
2022-08-30T15:54:31.704Z,1.95
2022-08-30T15:57:00.088Z,2.20
2022-08-30T15:59:30.189Z,1.77
2022-08-30T16:01:58.519Z,2.40
2022-08-30T16:04:29.274Z,1.77
2022-08-30T16:06:57.407Z,1.88
2022-08-30T16:09:29.848Z,1.65
2022-08-30T16:12:01.190Z,1.65
2022-08-30T16:14:29.194Z,1.80
2022-08-30T16:16:58.281Z,2.10
2022-08-30T16:19:26.677Z,2.00
2022-08-30T16:21:54.558Z,1.45
2022-08-30T16:24:23.585Z,1.77
2022-08-30T16:26:51.650Z,1.80
2022-08-30T16:29:20.174Z,1.80
2022-08-30T16:31:48.562Z,1.63
2022-08-30T16:34:18.551Z,1.60
2022-08-30T16:36:46.914Z,1.67
2022-08-30T16:39:15.273Z,1.35
2022-08-30T16:41:44.806Z,2.15
2022-08-30T16:44:16.010Z,1.67
2022-08-30T16:46:53.053Z,1.48
2022-08-30T16:49:23.036Z,1.67
2022-08-30T16:51:51.643Z,1.95
2022-08-30T16:54:21.271Z,1.92
2022-08-30T16:56:49.135Z,1.60
2022-08-30T16:59:17.845Z,1.55
2022-08-30T17:01:46.731Z,1.75
2022-08-30T17:04:18.488Z,1.77
2022-08-30T17:06:50.060Z,1.85
2022-08-30T17:09:19.362Z,2.30
2022-08-30T17:11:48.429Z,1.77
2022-08-30T17:14:22.986Z,1.90
2022-08-30T17:16:58.379Z,2.08
2022-08-30T17:22:16.018Z,2.15
2022-08-30T17:24:43.801Z,1.60
2022-08-30T17:27:11.626Z,2.10
2022-08-30T17:29:39.351Z,1.88
2022-08-30T17:32:07.387Z,1.85
2022-08-30T17:34:37.168Z,1.95
2022-08-30T17:37:05.102Z,1.95
2022-08-30T17:39:32.935Z,1.60
2022-08-30T17:42:00.832Z,1.73
2022-08-30T17:44:31.254Z,1.42
2022-08-30T17:47:00.020Z,1.50
2022-08-30T17:49:29.031Z,2.00
2022-08-30T17:51:57.891Z,1.40
2022-08-30T17:54:30.355Z,1.70
2022-08-30T17:56:59.232Z,1.58
2022-08-30T17:59:29.297Z,1.75
2022-08-30T18:02:00.238Z,2.42
2022-08-30T18:04:28.935Z,1.80
2022-08-30T18:06:56.796Z,1.80
2022-08-30T18:09:25.355Z,1.80
2022-08-30T18:11:56.485Z,1.52
2022-08-30T18:14:24.764Z,2.13
2022-08-30T18:16:54.430Z,1.63
2022-08-30T18:19:24.453Z,1.73
2022-08-30T18:21:53.687Z,1.80
2022-08-30T18:24:22.540Z,1.90
2022-08-30T18:26:50.838Z,2.17
2022-08-30T18:29:29.539Z,2.30
2022-08-30T18:32:01.393Z,1.95
2022-08-30T18:34:29.486Z,5.32
2022-08-30T18:36:57.343Z,6.13
2022-08-30T18:39:25.522Z,9.30
2022-08-30T18:41:58.436Z,5.97
2022-08-30T18:44:28.813Z,3.53
2022-08-30T18:46:58.303Z,3.20
2022-08-30T18:49:32.147Z,3.97
2022-08-30T18:52:02.391Z,3.90
2022-08-30T18:54:30.444Z,4.97
2022-08-30T18:56:58.496Z,11.88
2022-08-30T18:59:35.307Z,8.32
2022-08-30T19:02:08.143Z,6.47
2022-08-30T19:04:37.783Z,4.40
2022-08-30T19:07:08.071Z,3.30
2022-08-30T19:09:37.658Z,2.92
2022-08-30T19:12:09.561Z,2.45
2022-08-30T19:14:40.232Z,3.58
2022-08-30T19:17:08.277Z,4.55
2022-08-30T19:19:47.437Z,5.35
2022-08-30T19:22:21.616Z,3.80
2022-08-30T19:24:51.011Z,3.58
2022-08-30T19:27:38.057Z,3.55
2022-08-30T19:30:11.265Z,2.53
2022-08-30T19:32:38.932Z,2.60
2022-08-30T19:35:07.705Z,2.40
2022-08-30T19:37:36.953Z,3.38
2022-08-30T19:40:08.736Z,3.22
2022-08-30T19:42:43.376Z,3.78
2022-08-30T19:48:05.943Z,3.28
2022-08-30T19:50:33.804Z,3.00
2022-08-30T19:53:01.732Z,5.00
2022-08-30T19:55:31.409Z,3.92
2022-08-30T19:57:59.490Z,3.88
2022-08-30T20:00:27.566Z,3.60
2022-08-30T20:03:01.802Z,3.55
2022-08-30T20:05:31.383Z,3.63
2022-08-30T20:08:00.161Z,3.97
2022-08-30T20:10:28.071Z,3.60
2022-08-30T20:12:55.892Z,3.05
2022-08-30T20:15:25.020Z,3.10
2022-08-30T20:18:05.257Z,3.20
2022-08-30T20:20:36.962Z,2.88
2022-08-30T20:23:05.987Z,3.10
2022-08-30T20:24:23.646Z,1.60
2022-08-30T20:25:35.145Z,3.05
2022-08-30T20:28:03.499Z,3.22
2022-08-30T20:30:52.333Z,3.53
2022-08-30T20:33:21.710Z,3.25
2022-08-30T20:35:51.474Z,3.20
2022-08-30T20:38:24.255Z,2.90
2022-08-30T20:40:56.647Z,3.05
2022-08-30T20:43:27.560Z,3.20
2022-08-30T20:45:56.257Z,2.90
2022-08-30T20:48:27.206Z,2.85
2022-08-30T20:50:55.056Z,2.53
2022-08-30T20:53:22.709Z,2.58
2022-08-30T20:55:50.505Z,4.82
2022-08-30T20:58:18.478Z,6.47
2022-08-30T21:00:53.628Z,8.25
2022-08-30T21:03:27.232Z,6.90
2022-08-30T21:05:56.789Z,5.40
2022-08-30T21:08:25.545Z,4.45
2022-08-30T21:10:53.995Z,3.90
2022-08-30T21:13:22.111Z,3.30
2022-08-30T21:15:55.547Z,3.00
2022-08-30T21:18:31.221Z,2.55
2022-08-30T21:21:00.321Z,2.53
2022-08-30T21:23:27.991Z,2.72
2022-08-30T21:25:56.867Z,2.88
2022-08-30T21:28:24.596Z,2.55
2022-08-30T21:31:07.170Z,3.22
2022-08-30T21:33:35.526Z,3.50
2022-08-30T21:36:22.563Z,3.08
2022-08-30T21:38:52.877Z,3.00
2022-08-30T21:41:22.124Z,2.22
2022-08-30T21:43:59.549Z,2.28
2022-08-30T21:46:29.597Z,2.90
2022-08-30T21:49:01.415Z,3.13
2022-08-30T21:51:34.283Z,3.10
2022-08-30T21:54:02.678Z,3.83
2022-08-30T21:56:30.779Z,3.17
2022-08-30T21:58:58.619Z,2.88
2022-08-30T22:01:28.850Z,2.80
2022-08-30T22:03:59.222Z,3.00
2022-08-30T22:06:30.598Z,2.38
2022-08-30T22:09:01.360Z,2.10
2022-08-30T22:11:31.518Z,2.10
2022-08-30T22:13:59.461Z,1.98
2022-08-30T22:16:29.437Z,2.20
2022-08-30T22:18:57.441Z,2.33
2022-08-30T22:21:27.741Z,2.75
2022-08-30T22:23:56.558Z,3.63
2022-08-30T22:26:25.369Z,3.53
2022-08-30T22:28:54.601Z,3.28
2022-08-30T22:31:23.978Z,2.92
2022-08-30T22:33:52.951Z,2.70
2022-08-30T22:36:24.380Z,2.53
2022-08-30T22:39:01.882Z,2.80
2022-08-30T22:41:34.146Z,2.50
2022-08-30T22:44:02.664Z,2.10
2022-08-30T22:46:34.218Z,2.35
2022-08-30T22:49:08.384Z,2.30
2022-08-30T22:51:37.341Z,3.00
2022-08-30T22:54:07.131Z,2.90
2022-08-30T22:56:36.139Z,2.35
2022-08-30T22:59:04.938Z,2.90
2022-08-30T23:01:37.065Z,2.85
2022-08-30T23:04:07.520Z,2.80
2022-08-30T23:06:35.838Z,2.30
2022-08-30T23:09:05.118Z,2.90
2022-08-30T23:11:33.410Z,2.42
2022-08-30T23:14:03.254Z,2.92
2022-08-30T23:16:32.842Z,3.65
2022-08-30T23:19:00.731Z,2.70
2022-08-30T23:21:30.423Z,2.40
2022-08-30T23:24:17.523Z,2.20
2022-08-30T23:27:04.871Z,2.38
2022-08-30T23:29:52.523Z,2.42
2022-08-30T23:32:40.161Z,2.45
2022-08-30T23:35:30.567Z,2.55
2022-08-30T23:38:18.789Z,2.30
2022-08-30T23:41:05.232Z,2.80
2022-08-30T23:43:51.628Z,2.83
2022-08-30T23:46:40.987Z,2.60
2022-08-30T23:52:14.133Z,2.78
2022-08-30T23:55:00.426Z,2.85
2022-08-30T23:57:46.555Z,3.10
